Aérodrome :







RETROUVEZ-NOUS SUR...

 
LOGIN :

S'inscrire | Disclaimer

   EN    FR    IT 

 









Légende :    VFR   VFR Marginal   IFR   IFR Intensif   IFR Très Intensif
Visi : 
Plafond : 
>= 8 km
>= 3000ft
5 à 8 km
1000 à 3000 ft
1500m à 5 km
500 à 1000 ft
800 à 1500m
200 à 500 ft
< 800m
< 200 ft
Symboles :   Orages  Brouillard  Fortes neiges  Fortes précipitations  Vent > 20 kt






- Altitude de l'aérodrome : 15 ft
- Code IATA : EIS


TUPJ - Terrance B. Lettsome International

DERNIER METAR :
  • 041800Z 18008KT 10SM FEW022 29/22 A2989 RMK Q1012 VIS 16KM

METARs EXPIRÉS :
  • 041700Z 19008KT 10SM FEW022 29/22 A2989 RMK Q1012 VIS 16KM
  • 041600Z 17007KT 10SM FEW021 29/22 A2994 RMK Q1013 VIS 16KM

TAF TAF TUPJ
Valide du 04 à 18h jusqu'au 05 à 18h UTC


041700Z 0418/0518 VRB03KT 9999 SCT021
PROB30
TEMPO 0512/0518 SHRA



MET'MAP, la Météo Aéronautique d'un coup d'oeil ! - Copyright ORBIFLY Décembre 2007 - Disclaimer

ORBIFLY MET'MAP TEAM :

Programmation & Développement : Alexandra Zaïnal
Sur une idée originale de : Baudouin d'Aumeries
Assistance à la programmation : Marc-Olivier Méhu
Soutien technique & logistique : Manuel Goepfert

Contact : metmap@orbifly.com




SOURCES & CREDITS :

   NOAA